Arctic Bay — 9HTD8 — position and weather

sailwx.info

Track history (hours):
 
Tides and Currents Weather Stations Pressure Air Temp Water Temp Dewpoint Dewpoint Depression Visibility Wind Speed Wind Dir Waves Ship Positions

Arctic Bay

Last reported at 2016-Dec-08 15:28 UTC. Time now 2016-Dec-10 14:47 UTC.
Position N 26°16' W 079°29'.

Length 182 m; draft 10 m.

Type: Ship. MMSI: 256396000.

Date/timePositionNaut miles runAvg speedWind from/ knotsBaromVisibWave heightAir tempDewpointWater temp
2016-Dec-08 15:28N 26°16' W 079°29'1415.1
2016-Dec-08 14:33N 26°02' W 079°31'1615.5
2016-Dec-08 13:33N 25°47' W 079°34'1715.9
2016-Dec-08 12:28N 25°29' W 079°37'  
2016-Dec-05 22:22N 29°55' W 089°56'7 9.2
2016-Dec-05 21:33N 29°55' W 090°05'9 9.4
2016-Dec-05 20:33N 29°58' W 090°15'3 0.1
2016-Dec-03 17:29N 29°57' W 090°18'3 3.0
2016-Dec-03 16:28N 29°58' W 090°15'0 0.0
2016-Dec-03 15:28N 29°58' W 090°15'0 0.0
2016-Dec-03 14:31N 29°58' W 090°15'0 0.0
2016-Dec-03 13:28N 29°58' W 090°15'0 0.0
2016-Dec-03 12:28N 29°58' W 090°15'0 0.0
2016-Dec-03 11:31N 29°58' W 090°15'0 0.0
2016-Dec-03 10:31N 29°58' W 090°15'0 0.0
2016-Dec-03 09:04N 29°58' W 090°15'0 0.0
2016-Dec-03 08:31N 29°58' W 090°15'0 0.0
2016-Dec-03 07:07N 29°58' W 090°15'0 0.1
2016-Dec-03 06:31N 29°58' W 090°15'0 0.0
2016-Dec-03 05:28N 29°58' W 090°15'0 0.0
2016-Dec-03 04:19N 29°58' W 090°15'0 0.0
2016-Dec-03 03:25N 29°58' W 090°15'0 0.0
2016-Dec-03 02:25N 29°58' W 090°15'0 0.0
2016-Dec-03 01:31N 29°58' W 090°15'0 0.2
2016-Dec-03 00:20N 29°58' W 090°15'3 3.8
2016-Dec-02 23:34N 29°56' W 090°13'8 7.2
2016-Dec-02 22:25N 29°57' W 090°03'  
Track history (hours):
 
Tides and Currents Weather Stations Pressure Air Temp Water Temp Dewpoint Dewpoint Depression Visibility Wind Speed Wind Dir Waves Ship Positions

Arctic Bay

Last reported at 2016-Dec-08 15:28 UTC. Time now 2016-Dec-10 14:47 UTC.
Position N 26°16' W 079°29'.

Length 182 m; draft 10 m.

Type: Ship. MMSI: 256396000.

Date/timePositionNaut miles runAvg speedWind from/ knotsBaromVisibWave heightAir tempDewpointWater temp
2016-Dec-08 15:28N 26°16' W 079°29'1415.1
2016-Dec-08 14:33N 26°02' W 079°31'1615.5
2016-Dec-08 13:33N 25°47' W 079°34'1715.9
2016-Dec-08 12:28N 25°29' W 079°37'  
2016-Dec-05 22:22N 29°55' W 089°56'7 9.2
2016-Dec-05 21:33N 29°55' W 090°05'9 9.4
2016-Dec-05 20:33N 29°58' W 090°15'3 0.1
2016-Dec-03 17:29N 29°57' W 090°18'3 3.0
2016-Dec-03 16:28N 29°58' W 090°15'0 0.0
2016-Dec-03 15:28N 29°58' W 090°15'0 0.0
2016-Dec-03 14:31N 29°58' W 090°15'0 0.0
2016-Dec-03 13:28N 29°58' W 090°15'0 0.0
2016-Dec-03 12:28N 29°58' W 090°15'0 0.0
2016-Dec-03 11:31N 29°58' W 090°15'0 0.0
2016-Dec-03 10:31N 29°58' W 090°15'0 0.0
2016-Dec-03 09:04N 29°58' W 090°15'0 0.0
2016-Dec-03 08:31N 29°58' W 090°15'0 0.0
2016-Dec-03 07:07N 29°58' W 090°15'0 0.1
2016-Dec-03 06:31N 29°58' W 090°15'0 0.0
2016-Dec-03 05:28N 29°58' W 090°15'0 0.0
2016-Dec-03 04:19N 29°58' W 090°15'0 0.0
2016-Dec-03 03:25N 29°58' W 090°15'0 0.0
2016-Dec-03 02:25N 29°58' W 090°15'0 0.0
2016-Dec-03 01:31N 29°58' W 090°15'0 0.2
2016-Dec-03 00:20N 29°58' W 090°15'3 3.8
2016-Dec-02 23:34N 29°56' W 090°13'8 7.2
2016-Dec-02 22:25N 29°57' W 090°03'  

Dump ship's entire track history